Time;durP1;ratioP1;P1;durP2;ratioP2;P2;SDS_P1;SDS_P2;PMS_P1;PMS_P2;Temp;Humidity;BMP_temperature;BMP_pressure;BME280_temperature;BME280_humidity;BME280_pressure;Samples;Min_cycle;Max_cycle;Signal;HPM_P1;HPM_P2
2023/09/17 00:01:04;;;;;;;7.20;5.80;;;17.60;99.90;;;;;;5004719;28;20069;-73
2023/09/17 00:03:51;;;;;;;11.52;5.90;;;17.60;99.90;;;;;;5027426;28;20652;-73
2023/09/17 00:06:37;;;;;;;9.23;7.07;;;17.60;99.90;;;;;;4999349;28;20048;-73
2023/09/17 00:09:23;;;;;;;7.72;6.50;;;17.60;99.90;;;;;;5027722;28;20041;-73
2023/09/17 00:12:09;;;;;;;8.32;6.80;;;17.50;99.90;;;;;;5043919;28;20041;-73
2023/09/17 00:14:55;;;;;;;12.23;5.97;;;17.50;99.90;;;;;;5011573;28;20042;-73
2023/09/17 00:17:41;;;;;;;8.73;5.60;;;17.50;99.90;;;;;;5009870;28;20043;-73
2023/09/17 00:20:27;;;;;;;8.80;6.25;;;17.50;99.90;;;;;;4999252;28;20037;-74
2023/09/17 00:23:14;;;;;;;9.77;6.22;;;17.50;99.90;;;;;;5030187;28;20083;-73
2023/09/17 00:26:00;;;;;;;10.07;6.22;;;17.40;99.90;;;;;;5018085;28;20049;-73
2023/09/17 00:28:46;;;;;;;13.15;6.22;;;17.40;99.90;;;;;;5029360;28;20060;-73
2023/09/17 00:31:32;;;;;;;10.35;6.03;;;17.40;99.90;;;;;;5017781;28;20052;-74
2023/09/17 00:34:18;;;;;;;8.57;6.18;;;17.40;99.90;;;;;;5001960;28;20303;-73
2023/09/17 00:37:04;;;;;;;11.75;6.30;;;17.40;99.90;;;;;;5014863;28;20037;-73
2023/09/17 00:39:50;;;;;;;9.50;6.20;;;17.30;99.90;;;;;;5018998;28;20041;-73
2023/09/17 00:42:36;;;;;;;7.72;5.35;;;17.30;99.90;;;;;;4997520;28;20045;-73
2023/09/17 00:45:22;;;;;;;8.65;5.93;;;17.30;99.90;;;;;;5042141;28;20041;-73
2023/09/17 00:48:10;;;;;;;10.40;6.93;;;17.30;99.90;;;;;;5020804;28;20552;-73
2023/09/17 00:50:56;;;;;;;7.68;5.68;;;17.30;99.90;;;;;;5047302;28;20323;-73
2023/09/17 00:53:43;;;;;;;7.47;5.90;;;17.30;99.90;;;;;;4997399;28;20092;-73
2023/09/17 00:56:30;;;;;;;7.30;5.78;;;17.30;99.90;;;;;;5015103;28;20045;-73
2023/09/17 00:59:16;;;;;;;7.55;5.68;;;17.30;99.90;;;;;;5025429;28;20474;-73
2023/09/17 01:02:03;;;;;;;7.88;6.47;;;17.30;99.90;;;;;;5010781;28;20336;-73
2023/09/17 01:04:50;;;;;;;8.82;5.97;;;17.30;99.90;;;;;;4985014;28;20148;-73
2023/09/17 01:07:36;;;;;;;7.30;6.50;;;17.20;99.90;;;;;;4988537;28;20046;-73
2023/09/17 01:10:22;;;;;;;7.43;6.32;;;17.20;99.90;;;;;;4996579;28;20050;-74
2023/09/17 01:13:10;;;;;;;10.15;5.90;;;17.20;99.90;;;;;;5017037;28;20077;-73
2023/09/17 01:15:59;;;;;;;7.68;6.22;;;17.20;99.90;;;;;;5008144;28;20128;-73
2023/09/17 01:18:45;;;;;;;;;;;17.20;99.90;;;;;;5023949;28;20073;-73
2023/09/17 01:21:36;;;;;;;7.72;6.22;;;17.20;99.90;;;;;;5032035;28;20268;-73
2023/09/17 01:24:24;;;;;;;10.60;6.85;;;17.20;99.90;;;;;;5039041;28;20044;-74
2023/09/17 01:27:11;;;;;;;10.52;6.18;;;17.10;99.90;;;;;;5024078;28;20069;-73
2023/09/17 01:29:57;;;;;;;10.40;6.93;;;17.20;99.90;;;;;;5013713;28;20489;-73
2023/09/17 01:32:45;;;;;;;8.00;6.43;;;17.10;99.90;;;;;;5025597;28;20049;-73
2023/09/17 01:35:33;;;;;;;9.07;6.57;;;17.20;99.90;;;;;;5013747;28;20041;-73
2023/09/17 01:38:19;;;;;;;7.90;6.80;;;17.10;99.90;;;;;;5011085;28;20050;-73
2023/09/17 01:41:05;;;;;;;9.80;7.60;;;17.10;99.90;;;;;;5038377;28;20050;-73
2023/09/17 01:43:51;;;;;;;7.85;6.13;;;17.10;99.90;;;;;;5044435;28;20033;-73
2023/09/17 01:46:37;;;;;;;9.30;7.28;;;17.00;99.90;;;;;;5021129;28;20075;-73
2023/09/17 01:49:23;;;;;;;9.25;6.93;;;17.10;99.90;;;;;;5047956;28;20068;-74
2023/09/17 01:52:10;;;;;;;8.38;6.03;;;17.10;99.90;;;;;;5029590;28;20104;-74
2023/09/17 01:54:56;;;;;;;10.25;6.00;;;17.10;99.90;;;;;;5004338;28;20037;-73
2023/09/17 01:57:42;;;;;;;9.70;6.25;;;17.10;99.90;;;;;;5014228;28;20044;-73
2023/09/17 02:00:28;;;;;;;9.40;6.22;;;17.10;99.90;;;;;;5047517;28;20041;-74
2023/09/17 02:03:14;;;;;;;10.27;6.07;;;17.00;99.90;;;;;;5012360;28;20099;-73
2023/09/17 02:06:01;;;;;;;7.85;5.72;;;17.00;99.90;;;;;;5049296;28;20051;-74
2023/09/17 02:08:47;;;;;;;12.13;6.00;;;16.90;99.90;;;;;;5031326;28;20102;-74
2023/09/17 02:11:34;;;;;;;10.48;6.43;;;16.90;99.90;;;;;;5001942;28;20053;-74
2023/09/17 02:14:20;;;;;;;6.93;6.05;;;17.00;99.90;;;;;;5006794;28;20037;-73
2023/09/17 02:17:08;;;;;;;8.32;5.82;;;16.90;99.90;;;;;;5045566;28;20103;-73
2023/09/17 02:19:54;;;;;;;12.15;5.93;;;16.90;99.90;;;;;;5000737;28;20123;-73
2023/09/17 02:22:40;;;;;;;7.90;5.68;;;16.80;99.90;;;;;;5001900;28;20089;-73
2023/09/17 02:25:27;;;;;;;6.53;5.30;;;16.80;99.90;;;;;;5002741;28;20245;-73
2023/09/17 02:28:13;;;;;;;8.48;6.65;;;16.70;99.90;;;;;;4993831;28;20034;-73
2023/09/17 02:31:02;;;;;;;7.90;6.15;;;16.70;99.90;;;;;;5005101;28;20052;-73
2023/09/17 02:33:48;;;;;;;6.70;5.82;;;16.70;99.90;;;;;;5008606;28;20129;-73
2023/09/17 02:36:36;;;;;;;6.43;5.82;;;16.70;99.90;;;;;;5002760;28;20044;-73
2023/09/17 02:39:22;;;;;;;;;;;16.70;99.90;;;;;;4987495;28;20046;-73
2023/09/17 02:42:08;;;;;;;9.40;6.30;;;16.70;99.90;;;;;;4977107;28;19910;-73
2023/09/17 02:44:54;;;;;;;8.63;6.45;;;16.70;99.90;;;;;;4989864;28;20046;-73
2023/09/17 02:47:42;;;;;;;8.43;6.57;;;16.60;99.90;;;;;;4978223;28;20046;-73
2023/09/17 02:50:29;;;;;;;8.32;6.90;;;16.60;99.90;;;;;;4976764;28;20053;-73
2023/09/17 02:53:14;;;;;;;11.70;6.95;;;16.60;99.90;;;;;;5001082;28;20134;-74
2023/09/17 02:56:03;;;;;;;7.85;6.53;;;16.60;99.90;;;;;;4970169;28;20039;-74
2023/09/17 02:58:49;;;;;;;10.13;6.90;;;16.60;99.90;;;;;;4966492;28;20039;-73
2023/09/17 03:01:35;;;;;;;8.60;6.03;;;16.60;99.90;;;;;;4958906;28;20554;-74
2023/09/17 03:04:24;;;;;;;8.60;6.22;;;16.60;99.90;;;;;;5004375;28;20061;-73
2023/09/17 03:07:10;;;;;;;8.05;5.88;;;16.60;99.90;;;;;;4987694;28;20042;-73
2023/09/17 03:09:59;;;;;;;7.35;5.90;;;16.60;99.90;;;;;;4979365;28;20042;-73
2023/09/17 03:12:46;;;;;;;9.55;6.25;;;16.60;99.90;;;;;;4966826;28;20081;-73
2023/09/17 03:15:33;;;;;;;8.73;5.82;;;16.60;99.90;;;;;;4980403;28;20034;-73
2023/09/17 03:18:19;;;;;;;9.32;6.78;;;16.60;99.90;;;;;;4983228;28;20725;-73
2023/09/17 03:21:09;;;;;;;10.35;5.75;;;16.60;99.90;;;;;;4991177;28;20038;-73
2023/09/17 03:23:55;;;;;;;10.93;6.22;;;16.60;99.90;;;;;;4977901;28;20096;-73
2023/09/17 03:26:41;;;;;;;8.57;6.18;;;16.60;99.90;;;;;;4993948;28;20356;-74
2023/09/17 03:29:27;;;;;;;8.98;6.88;;;16.50;99.90;;;;;;4986061;28;20046;-73
2023/09/17 03:32:16;;;;;;;9.32;6.13;;;16.50;99.90;;;;;;4991497;28;20120;-74
2023/09/17 03:35:03;;;;;;;9.30;6.20;;;16.50;99.90;;;;;;4992265;28;20038;-73
2023/09/17 03:37:51;;;;;;;13.90;6.07;;;16.60;99.90;;;;;;4978180;28;20062;-73
2023/09/17 03:40:38;;;;;;;7.80;5.85;;;16.60;99.90;;;;;;4977400;28;20038;-73
2023/09/17 03:43:24;;;;;;;6.88;5.47;;;16.60;99.90;;;;;;4967320;28;20049;-73
2023/09/17 03:46:10;;;;;;;7.65;5.90;;;16.60;99.90;;;;;;5002616;28;20483;-74
2023/09/17 03:48:57;;;;;;;9.57;6.10;;;16.60;99.90;;;;;;4996191;28;20046;-73
2023/09/17 03:51:43;;;;;;;8.45;5.53;;;16.60;99.90;;;;;;4993349;28;20048;-73
2023/09/17 03:54:30;;;;;;;8.43;5.28;;;16.60;99.90;;;;;;4991936;28;20139;-73
2023/09/17 03:57:16;;;;;;;8.10;5.57;;;16.70;99.90;;;;;;4962421;28;20045;-73
2023/09/17 04:00:10;;;;;;;9.63;5.80;;;16.70;99.90;;;;;;5018506;28;20041;-73
2023/09/17 04:02:56;;;;;;;8.93;5.45;;;16.70;99.90;;;;;;4974525;28;20045;-73
2023/09/17 04:05:42;;;;;;;8.40;6.38;;;16.70;99.90;;;;;;4996642;28;20045;-73
2023/09/17 04:08:28;;;;;;;10.30;6.55;;;16.70;99.90;;;;;;5010153;28;20053;-73
2023/09/17 04:11:15;;;;;;;8.02;6.03;;;16.70;99.90;;;;;;4999586;28;20045;-73
2023/09/17 04:14:01;;;;;;;17.20;6.22;;;16.70;99.90;;;;;;4998180;28;20048;-74
2023/09/17 04:16:47;;;;;;;12.30;6.05;;;16.70;99.90;;;;;;4968972;28;20370;-74
2023/09/17 04:19:33;;;;;;;7.18;6.32;;;16.70;99.90;;;;;;5026323;28;20083;-73
2023/09/17 04:22:21;;;;;;;9.48;6.03;;;16.80;99.90;;;;;;5023900;28;20128;-73
2023/09/17 04:25:09;;;;;;;8.40;6.10;;;16.80;99.90;;;;;;5019216;28;20099;-73
2023/09/17 04:27:55;;;;;;;;;;;16.70;99.90;;;;;;5014497;28;20418;-74
2023/09/17 04:30:41;;;;;;;9.05;6.53;;;16.70;99.90;;;;;;5011097;28;19921;-73
2023/09/17 04:33:26;;;;;;;7.57;6.18;;;16.70;99.90;;;;;;5021414;28;20040;-73
2023/09/17 04:36:12;;;;;;;9.95;5.97;;;16.70;99.90;;;;;;5025574;28;20651;-74
2023/09/17 04:38:58;;;;;;;8.15;5.90;;;16.80;99.90;;;;;;5024796;28;20053;-74
2023/09/17 04:41:46;;;;;;;7.85;5.88;;;16.70;99.90;;;;;;5026290;28;20041;-73
2023/09/17 04:44:32;;;;;;;7.55;5.50;;;16.70;99.90;;;;;;5004734;28;20048;-73
2023/09/17 04:47:18;;;;;;;9.45;5.57;;;16.80;99.90;;;;;;5032291;28;20402;-73
2023/09/17 04:50:07;;;;;;;10.80;5.78;;;16.80;99.90;;;;;;5016263;28;20034;-74
2023/09/17 04:52:55;;;;;;;10.05;5.82;;;16.80;99.90;;;;;;5010162;28;20370;-73
2023/09/17 04:55:41;;;;;;;10.38;5.85;;;16.90;99.90;;;;;;5012921;28;20129;-73
2023/09/17 04:58:27;;;;;;;8.35;5.65;;;16.90;99.90;;;;;;5016529;28;20053;-73
2023/09/17 05:01:13;;;;;;;7.53;5.70;;;16.90;99.90;;;;;;5024719;28;20040;-73
2023/09/17 05:03:59;;;;;;;7.80;5.65;;;16.90;99.90;;;;;;5021351;28;20053;-73
2023/09/17 05:06:46;;;;;;;11.18;5.97;;;16.90;99.90;;;;;;5002126;28;20081;-73
2023/09/17 05:09:33;;;;;;;8.07;5.70;;;16.90;99.90;;;;;;5030323;28;20386;-73
2023/09/17 05:12:19;;;;;;;8.57;5.75;;;16.90;99.90;;;;;;5017899;28;20045;-74
2023/09/17 05:15:05;;;;;;;9.40;5.63;;;16.90;99.90;;;;;;5023896;28;20045;-74
2023/09/17 05:17:51;;;;;;;7.63;5.90;;;16.90;99.90;;;;;;4998258;28;20335;-73
2023/09/17 05:20:43;;;;;;;8.27;6.50;;;16.90;99.90;;;;;;4994416;28;20494;-74
2023/09/17 05:23:29;;;;;;;9.88;5.93;;;16.90;99.90;;;;;;5022041;28;20037;-73
2023/09/17 05:26:15;;;;;;;6.72;5.43;;;17.00;99.90;;;;;;5020349;28;20049;-74
2023/09/17 05:29:01;;;;;;;8.60;5.57;;;17.00;99.90;;;;;;5030771;28;20044;-73
2023/09/17 05:31:47;;;;;;;10.23;6.30;;;17.00;99.90;;;;;;5033287;28;20056;-74
2023/09/17 05:34:33;;;;;;;11.30;7.05;;;17.00;99.90;;;;;;5023886;28;20041;-74
2023/09/17 05:37:19;;;;;;;10.63;7.03;;;17.00;99.90;;;;;;5013072;28;20045;-73
2023/09/17 05:40:06;;;;;;;8.25;6.63;;;17.00;99.90;;;;;;5009515;28;20256;-73
2023/09/17 05:42:52;;;;;;;12.75;7.28;;;17.00;99.90;;;;;;5035604;28;20492;-73
2023/09/17 05:45:39;;;;;;;7.65;5.97;;;17.00;99.90;;;;;;5016105;28;20184;-73
2023/09/17 05:48:25;;;;;;;7.97;5.90;;;17.00;99.90;;;;;;5020103;28;20045;-73
2023/09/17 05:51:11;;;;;;;8.35;5.75;;;17.10;99.90;;;;;;4998770;28;20496;-73
2023/09/17 05:53:57;;;;;;;6.60;5.90;;;17.10;99.90;;;;;;5007607;28;20497;-73
2023/09/17 05:56:43;;;;;;;10.05;6.20;;;17.10;99.90;;;;;;4992361;28;20045;-74
2023/09/17 05:59:29;;;;;;;8.35;6.00;;;17.10;99.90;;;;;;5040284;28;20095;-74
2023/09/17 06:02:15;;;;;;;8.00;6.38;;;17.20;99.90;;;;;;5005663;28;20099;-73
2023/09/17 06:05:03;;;;;;;11.70;7.32;;;17.20;99.90;;;;;;4983159;28;20080;-74
2023/09/17 06:07:49;;;;;;;8.32;6.10;;;17.20;99.90;;;;;;5021249;28;20075;-74
2023/09/17 06:10:35;;;;;;;9.00;5.80;;;17.20;99.90;;;;;;4991689;28;20056;-73
2023/09/17 06:13:22;;;;;;;7.70;5.50;;;17.20;99.90;;;;;;5011733;28;20049;-74
2023/09/17 06:16:08;;;;;;;9.02;5.47;;;17.20;99.90;;;;;;5005604;28;20102;-74
2023/09/17 06:18:54;;;;;;;8.13;5.63;;;17.30;99.90;;;;;;5003433;28;20085;-74
2023/09/17 06:21:44;;;;;;;8.50;5.68;;;17.30;99.90;;;;;;5015689;28;20037;-74
2023/09/17 06:24:30;;;;;;;9.93;6.10;;;17.30;99.90;;;;;;5005510;28;20041;-74
2023/09/17 06:27:16;;;;;;;8.38;6.28;;;17.40;99.90;;;;;;5028544;28;20029;-73
2023/09/17 06:30:02;;;;;;;8.85;5.50;;;17.40;99.90;;;;;;5039364;28;20559;-73
2023/09/17 06:32:48;;;;;;;12.25;5.90;;;17.40;99.90;;;;;;5022771;28;20044;-73
2023/09/17 06:35:34;;;;;;;6.60;5.50;;;17.50;99.90;;;;;;5018508;28;20041;-74
2023/09/17 06:38:20;;;;;;;8.07;5.70;;;17.50;99.90;;;;;;4993158;28;20033;-74
2023/09/17 06:41:07;;;;;;;8.68;6.45;;;17.50;99.90;;;;;;5016830;28;20049;-74
2023/09/17 06:43:53;;;;;;;6.90;5.17;;;17.60;99.90;;;;;;5014915;28;20045;-74
2023/09/17 06:46:39;;;;;;;7.65;5.03;;;17.60;99.90;;;;;;5044517;28;20041;-74
2023/09/17 06:49:25;;;;;;;9.63;4.90;;;17.60;99.90;;;;;;5047277;28;20055;-74
2023/09/17 06:52:14;;;;;;;7.60;5.10;;;17.70;99.90;;;;;;5050945;28;20138;-74
2023/09/17 06:55:00;;;;;;;5.60;4.43;;;17.70;99.90;;;;;;5026439;28;20108;-73
2023/09/17 06:57:46;;;;;;;8.85;4.78;;;17.70;99.90;;;;;;5021244;28;20037;-74
2023/09/17 07:00:32;;;;;;;6.63;4.70;;;17.80;99.90;;;;;;5008407;28;20044;-74
2023/09/17 07:03:18;;;;;;;5.32;4.57;;;17.80;99.90;;;;;;5010300;28;20068;-74
2023/09/17 07:06:04;;;;;;;8.05;4.65;;;17.80;99.90;;;;;;4979451;28;20073;-74
2023/09/17 07:08:52;;;;;;;5.88;4.88;;;17.90;99.90;;;;;;5023847;28;20068;-74
2023/09/17 07:11:38;;;;;;;5.95;4.80;;;17.90;99.90;;;;;;5000842;28;20381;-75
2023/09/17 07:14:24;;;;;;;8.48;4.88;;;17.90;99.90;;;;;;5016561;28;20037;-73
2023/09/17 07:17:11;;;;;;;9.90;4.45;;;18.00;99.90;;;;;;5001664;28;20038;-73
2023/09/17 07:19:57;;;;;;;6.97;4.72;;;17.90;99.90;;;;;;5036030;28;20045;-73
2023/09/17 07:22:42;;;;;;;6.57;4.50;;;18.00;99.90;;;;;;4993264;28;20069;-74
2023/09/17 07:25:31;;;;;;;6.78;4.85;;;18.00;99.90;;;;;;4997784;28;20052;-75
2023/09/17 07:28:18;;;;;;;9.27;4.50;;;18.10;99.90;;;;;;5011929;28;20106;-74
2023/09/17 07:31:07;;;;;;;7.50;4.53;;;18.20;99.90;;;;;;5009446;28;20048;-74
2023/09/17 07:33:53;;;;;;;7.47;5.05;;;18.20;99.90;;;;;;5017409;28;20033;-75
2023/09/17 07:36:39;;;;;;;5.53;4.55;;;18.30;99.90;;;;;;4983959;28;20069;-75
2023/09/17 07:39:26;;;;;;;6.75;5.20;;;18.30;99.90;;;;;;5006265;28;20073;-73
2023/09/17 07:42:13;;;;;;;5.57;4.90;;;18.40;99.90;;;;;;4997903;28;20095;-75
2023/09/17 07:45:01;;;;;;;7.55;4.95;;;18.50;99.90;;;;;;5012945;28;20093;-73
2023/09/17 07:47:46;;;;;;;8.40;5.30;;;18.50;99.90;;;;;;4997770;28;20079;-75
2023/09/17 07:50:32;;;;;;;7.57;5.47;;;18.60;99.90;;;;;;4996804;28;20163;-73
2023/09/17 07:53:18;;;;;;;8.23;5.43;;;18.60;99.90;;;;;;4984682;28;20116;-72
2023/09/17 07:56:08;;;;;;;6.25;4.93;;;18.60;99.90;;;;;;4985000;28;20042;-73
2023/09/17 07:58:54;;;;;;;10.43;5.20;;;18.70;99.90;;;;;;4996882;28;20689;-74
2023/09/17 08:01:40;;;;;;;7.28;5.38;;;18.70;99.90;;;;;;5000893;28;20041;-73
2023/09/17 08:04:26;;;;;;;6.65;4.40;;;18.80;99.90;;;;;;4987942;28;20076;-74
2023/09/17 08:07:12;;;;;;;5.45;4.25;;;18.80;99.90;;;;;;5002323;28;20052;-74
2023/09/17 08:10:06;;;;;;;6.70;5.57;;;18.90;99.90;;;;;;4984958;28;20506;-74
2023/09/17 08:12:53;;;;;;;9.80;5.65;;;19.00;99.90;;;;;;5024991;28;20084;-73
2023/09/17 08:15:39;;;;;;;8.45;5.30;;;19.20;99.90;;;;;;5012628;28;20156;-73
2023/09/17 08:18:25;;;;;;;7.60;5.45;;;19.30;99.90;;;;;;4979933;28;20054;-73
2023/09/17 08:21:12;;;;;;;6.28;5.63;;;19.30;99.90;;;;;;4980524;28;20102;-73
2023/09/17 08:23:58;;;;;;;6.53;5.35;;;19.40;99.90;;;;;;4983331;28;20482;-72
2023/09/17 08:26:44;;;;;;;7.18;4.88;;;19.50;99.90;;;;;;4961881;28;20371;-72
2023/09/17 08:29:30;;;;;;;9.10;4.97;;;19.60;99.90;;;;;;4970897;28;20157;-73
2023/09/17 08:32:16;;;;;;;7.85;4.82;;;19.60;99.90;;;;;;4982153;28;20041;-73
2023/09/17 08:35:06;;;;;;;8.38;5.47;;;19.70;99.90;;;;;;4981843;28;20108;-73
2023/09/17 08:37:52;;;;;;;7.88;5.05;;;19.80;99.90;;;;;;4991456;28;20126;-73
2023/09/17 08:40:38;;;;;;;8.02;5.40;;;19.90;99.90;;;;;;4985807;28;20049;-74
2023/09/17 08:43:24;;;;;;;7.05;5.63;;;19.90;99.90;;;;;;4983331;28;20659;-74
2023/09/17 08:46:10;;;;;;;8.23;5.20;;;20.00;99.90;;;;;;4967645;28;20050;-73
2023/09/17 08:49:01;;;;;;;8.45;4.97;;;20.20;99.90;;;;;;4984532;28;20454;-73
2023/09/17 08:51:48;;;;;;;7.32;4.88;;;20.30;99.90;;;;;;4982571;28;20048;-73
2023/09/17 08:54:38;;;;;;;6.93;4.60;;;20.40;99.90;;;;;;4994494;28;20065;-74
2023/09/17 08:57:26;;;;;;;6.07;4.85;;;20.50;99.90;;;;;;4985298;28;20038;-73
2023/09/17 09:00:15;;;;;;;6.47;5.03;;;20.50;99.90;;;;;;5005237;28;20133;-73
2023/09/17 09:03:03;;;;;;;6.70;4.78;;;20.50;99.90;;;;;;4989650;28;20100;-73
2023/09/17 09:05:50;;;;;;;7.38;5.40;;;20.60;99.90;;;;;;4980690;28;20042;-73
2023/09/17 09:08:36;;;;;;;8.80;4.38;;;20.70;99.90;;;;;;4981845;28;20073;-74
2023/09/17 09:11:22;;;;;;;11.40;4.90;;;20.80;99.90;;;;;;4984212;28;20053;-75
2023/09/17 09:14:08;;;;;;;7.38;4.03;;;20.90;99.90;;;;;;4980669;28;20086;-74
2023/09/17 09:16:54;;;;;;;9.38;4.25;;;21.10;99.90;;;;;;4998658;28;20046;-74
2023/09/17 09:19:40;;;;;;;6.28;4.40;;;21.20;99.90;;;;;;4974863;28;20517;-74
2023/09/17 09:22:26;;;;;;;4.88;3.42;;;21.40;99.90;;;;;;4974898;28;20043;-74
2023/09/17 09:25:13;;;;;;;4.43;3.63;;;21.60;99.90;;;;;;4976055;28;20145;-74
2023/09/17 09:28:04;;;;;;;5.28;3.58;;;21.80;99.90;;;;;;4991471;28;20378;-73
2023/09/17 09:30:50;;;;;;;7.55;3.70;;;21.90;99.90;;;;;;4984062;28;20485;-73
2023/09/17 09:33:37;;;;;;;5.80;3.33;;;22.20;99.90;;;;;;4981920;28;20053;-74
2023/09/17 09:36:26;;;;;;;5.13;3.22;;;22.40;99.90;;;;;;5014055;28;20351;-73
2023/09/17 09:39:15;;;;;;;6.43;3.33;;;22.70;99.90;;;;;;4974434;28;20421;-73
2023/09/17 09:42:02;;;;;;;5.00;3.33;;;22.90;99.90;;;;;;4992482;28;20038;-73
2023/09/17 09:44:52;;;;;;;5.05;3.17;;;23.10;99.90;;;;;;4962970;28;20340;-73
2023/09/17 09:47:38;;;;;;;5.05;3.20;;;23.30;99.90;;;;;;4988720;28;20039;-73
2023/09/17 09:50:25;;;;;;;3.35;2.63;;;23.20;99.90;;;;;;4974186;28;20054;-73
2023/09/17 09:53:11;;;;;;;3.60;2.60;;;23.20;99.90;;;;;;4997401;28;20509;-73
2023/09/17 09:55:57;;;;;;;5.25;2.72;;;23.30;99.90;;;;;;4992767;28;20047;-73
2023/09/17 09:58:44;;;;;;;4.63;2.40;;;23.30;99.90;;;;;;5007731;28;20037;-73
2023/09/17 10:01:30;;;;;;;4.65;2.88;;;23.40;99.90;;;;;;4990111;28;20413;-73
2023/09/17 10:04:17;;;;;;;6.53;3.28;;;23.40;99.90;;;;;;4995166;28;20042;-73
2023/09/17 10:07:04;;;;;;;5.57;2.85;;;23.50;99.90;;;;;;4978852;28;20518;-73
2023/09/17 10:09:50;;;;;;;3.78;2.50;;;23.50;99.90;;;;;;4996610;28;20110;-73
2023/09/17 10:12:36;;;;;;;5.47;2.38;;;23.50;99.90;;;;;;4964219;28;20047;-73
2023/09/17 10:15:22;;;;;;;3.65;2.60;;;23.60;99.90;;;;;;5004111;28;20033;-72
2023/09/17 10:18:11;;;;;;;4.15;2.47;;;23.60;99.90;;;;;;5002018;28;20081;-73
2023/09/17 10:20:57;;;;;;;4.63;2.35;;;23.50;99.90;;;;;;5023969;28;20041;-73
2023/09/17 10:23:45;;;;;;;3.10;2.42;;;23.50;99.90;;;;;;5026512;28;20045;-73
2023/09/17 10:26:41;;;;;;;4.10;2.50;;;23.50;99.90;;;;;;4992603;28;20471;-74
2023/09/17 10:29:27;;;;;;;3.65;2.50;;;23.40;99.90;;;;;;4992317;28;20090;-72
2023/09/17 10:32:13;;;;;;;4.10;2.53;;;23.50;99.90;;;;;;4998302;28;20053;-73
2023/09/17 10:34:59;;;;;;;3.95;2.60;;;23.40;99.90;;;;;;5013838;28;20122;-73
2023/09/17 10:37:46;;;;;;;4.30;2.25;;;23.40;99.90;;;;;;5024694;28;20052;-73
2023/09/17 10:40:36;;;;;;;3.55;2.60;;;23.50;99.90;;;;;;5018545;28;20034;-73
2023/09/17 10:43:22;;;;;;;3.45;2.78;;;23.50;99.90;;;;;;5030609;28;20041;-73
2023/09/17 10:46:08;;;;;;;3.30;2.58;;;23.70;99.90;;;;;;5011245;28;20045;-73
2023/09/17 10:48:57;;;;;;;5.60;2.88;;;24.00;99.90;;;;;;5017580;28;20046;-73
2023/09/17 10:51:45;;;;;;;5.32;2.90;;;24.30;99.90;;;;;;5011392;28;20463;-73
2023/09/17 10:54:31;;;;;;;4.65;2.92;;;24.60;99.90;;;;;;5021234;28;20038;-72
2023/09/17 10:57:23;;;;;;;3.92;2.60;;;24.80;99.60;;;;;;5021726;28;20044;-72
2023/09/17 11:00:13;;;;;;;4.53;2.92;;;24.90;99.90;;;;;;5005027;28;20585;-72
2023/09/17 11:03:01;;;;;;;4.13;2.55;;;;;;;;;;5015441;28;20494;-72
2023/09/17 11:05:47;;;;;;;5.28;3.00;;;;;;;;;;5013262;28;20045;-72
2023/09/17 11:08:34;;;;;;;5.60;3.00;;;;;;;;;;5033515;28;20088;-72
2023/09/17 11:11:20;;;;;;;6.13;3.03;;;;;;;;;;5008377;28;20470;-72
2023/09/17 11:14:08;;;;;;;4.10;2.88;;;;;;;;;;5035671;28;20132;-72
2023/09/17 11:16:54;;;;;;;3.72;2.83;;;;;;;;;;5038133;28;20074;-72
2023/09/17 11:19:41;;;;;;;5.10;3.00;;;;;;;;;;5013107;28;20050;-72
2023/09/17 11:22:27;;;;;;;3.50;2.80;;;;;;;;;;4989240;28;20046;-73
2023/09/17 11:25:18;;;;;;;6.35;2.70;;;;;;;;;;5000477;28;20165;-73
2023/09/17 11:28:11;;;;;;;4.80;2.95;;;;;;;;;;4995682;28;20049;-75
2023/09/17 11:31:09;;;;;;;5.40;3.17;;;;;;;;;;5034985;28;20053;-73
2023/09/17 11:33:55;;;;;;;5.28;2.80;;;;;;;;;;5017565;28;20469;-73
2023/09/17 11:36:42;;;;;;;4.55;2.88;;;;;;;;;;4990220;28;20038;-73
2023/09/17 11:39:28;;;;;;;4.28;2.80;;;;;;;;;;5001128;28;20041;-73
2023/09/17 11:42:14;;;;;;;4.60;2.90;;;;;;;;;;5002619;28;20102;-73
2023/09/17 11:45:02;;;;;;;4.05;2.47;;;;;;;;;;5003028;28;20120;-73
2023/09/17 11:47:48;;;;;;;5.40;2.88;;;;;;;;;;4978292;28;20038;-73
2023/09/17 11:50:35;;;;;;;6.38;2.92;;;;;;;;;;5037472;28;20052;-73
2023/09/17 11:53:21;;;;;;;3.95;2.60;;;;;;;;;;5011571;28;20049;-74
2023/09/17 11:56:07;;;;;;;5.97;3.50;;;;;;;;;;5018833;28;20077;-73
2023/09/17 11:59:01;;;;;;;4.50;2.70;;;;;;;;;;5027957;28;20126;-73
2023/09/17 12:01:49;;;;;;;3.85;2.70;;;;;;;;;;5028666;28;20041;-73
2023/09/17 12:04:35;;;;;;;4.97;2.75;;;;;;;;;;5040782;28;20406;-73
2023/09/17 12:07:22;;;;;;;5.43;2.88;;;;;;;;;;5034772;28;20049;-73
2023/09/17 12:10:09;;;;;;;7.90;2.93;;;;;;;;;;5018493;28;20034;-73
2023/09/17 12:12:55;;;;;;;4.65;2.78;;;;;;;;;;5030412;28;20079;-73
2023/09/17 12:15:42;;;;;;;5.10;2.67;;;;;;;;;;5019538;28;20044;-73
2023/09/17 12:18:28;;;;;;;10.95;2.70;;;;;;;;;;5001911;28;20129;-73
2023/09/17 12:21:16;;;;;;;7.13;2.92;;;;;;;;;;4984796;28;20042;-73
2023/09/17 12:24:07;;;;;;;3.55;2.55;;;;;;;;;;5009253;28;20042;-74
2023/09/17 12:29:53;;;;;;;5.95;3.17;;;;;;;;;;4995099;28;20371;-73
2023/09/17 12:32:39;;;;;;;5.27;2.73;;;;;;;;;;4990044;28;20387;-73
2023/09/17 12:35:26;;;;;;;4.28;2.65;;;;;;;;;;4989234;28;20120;-73
2023/09/17 12:38:12;;;;;;;5.38;2.40;;;;;;;;;;4984938;28;20042;-73
2023/09/17 12:40:58;;;;;;;3.25;2.70;;;;;;;;;;4992244;28;20034;-73
2023/09/17 12:43:46;;;;;;;3.75;2.63;;;;;;;;;;4991056;28;20038;-74
2023/09/17 12:46:32;;;;;;;3.90;2.70;;;;;;;;;;4985567;28;20042;-74
2023/09/17 12:49:21;;;;;;;3.30;2.47;;;;;;;;;;4990282;28;20038;-74
2023/09/17 12:52:07;;;;;;;3.60;2.53;;;;;;;;;;4991164;28;20046;-74
2023/09/17 12:54:55;;;;;;;3.25;2.30;;;;;;;;;;4990628;28;20367;-74
2023/09/17 12:57:41;;;;;;;2.80;2.00;;;;;;;;;;4988808;28;20049;-74
2023/09/17 13:00:27;;;;;;;3.55;2.10;;;;;;;;;;4985681;28;20034;-74
2023/09/17 13:03:18;;;;;;;4.68;2.03;;;28.40;90.10;;;;;;4994011;28;20467;-75
2023/09/17 13:06:04;;;;;;;5.07;2.00;;;28.30;90.20;;;;;;4983117;28;20038;-75
2023/09/17 13:08:49;;;;;;;2.78;2.05;;;28.70;90.20;;;;;;4995315;28;20050;-75
2023/09/17 13:11:37;;;;;;;3.50;2.20;;;29.10;91.30;;;;;;4989558;28;20034;-75
2023/09/17 13:14:23;;;;;;;3.30;2.67;;;29.40;91.10;;;;;;4975514;28;20042;-75
2023/09/17 13:17:09;;;;;;;3.10;2.30;;;29.70;89.60;;;;;;5004722;28;20446;-74
2023/09/17 13:19:56;;;;;;;3.72;2.33;;;30.00;88.10;;;;;;4981615;28;20043;-74
2023/09/17 13:22:42;;;;;;;3.92;2.40;;;30.10;87.10;;;;;;4979564;28;20365;-74
2023/09/17 13:25:28;;;;;;;5.10;2.20;;;30.40;87.50;;;;;;4954595;28;20038;-74
2023/09/17 13:28:15;;;;;;;3.92;2.33;;;30.70;87.30;;;;;;4979027;28;20046;-74
2023/09/17 13:31:02;;;;;;;4.28;2.10;;;30.80;84.50;;;;;;4980745;28;20526;-73
2023/09/17 13:33:48;;;;;;;2.90;2.13;;;30.80;82.40;;;;;;4979334;28;20116;-73
2023/09/17 13:36:34;;;;;;;2.85;1.92;;;30.50;82.40;;;;;;5003549;28;20463;-73
2023/09/17 13:39:20;;;;;;;3.80;1.98;;;30.60;81.40;;;;;;4952593;28;20046;-73
2023/09/17 13:42:06;;;;;;;5.03;2.05;;;30.50;81.80;;;;;;4993049;28;20108;-73
2023/09/17 13:44:55;;;;;;;2.45;1.92;;;30.20;78.60;;;;;;4979113;28;20049;-73
2023/09/17 13:47:42;;;;;;;3.35;1.92;;;30.10;78.90;;;;;;4973294;28;20078;-73
2023/09/17 13:50:29;;;;;;;2.67;2.00;;;29.50;80.60;;;;;;4987370;28;20038;-73
2023/09/17 13:53:18;;;;;;;3.85;1.90;;;29.40;81.00;;;;;;4980566;28;20584;-73
2023/09/17 13:56:04;;;;;;;3.05;1.65;;;29.20;81.40;;;;;;4993476;28;20042;-73
2023/09/17 13:58:50;;;;;;;5.18;2.25;;;29.00;81.90;;;;;;4963333;28;20084;-73
2023/09/17 14:01:38;;;;;;;3.70;1.90;;;28.80;82.50;;;;;;5006283;28;20434;-73
2023/09/17 14:04:24;;;;;;;4.00;1.90;;;28.50;83.00;;;;;;4993115;28;20366;-74
2023/09/17 14:07:10;;;;;;;2.40;1.92;;;28.20;82.70;;;;;;4978277;28;20046;-73
2023/09/17 14:09:56;;;;;;;3.17;2.10;;;28.10;83.10;;;;;;4964730;28;20053;-73
2023/09/17 14:12:43;;;;;;;3.95;2.00;;;27.80;83.30;;;;;;4965667;28;20046;-73
2023/09/17 14:15:32;;;;;;;6.30;2.20;;;27.70;84.40;;;;;;4972725;28;20108;-73
2023/09/17 14:18:18;;;;;;;3.95;1.95;;;27.60;85.40;;;;;;4982625;28;20054;-74
2023/09/17 14:21:05;;;;;;;3.25;1.90;;;27.50;86.10;;;;;;4996643;28;20049;-74
2023/09/17 14:23:51;;;;;;;3.15;1.80;;;27.40;86.70;;;;;;4995387;28;20049;-74
2023/09/17 14:26:37;;;;;;;3.88;1.80;;;27.30;87.10;;;;;;4982229;28;20049;-74
2023/09/17 14:29:23;;;;;;;3.72;1.60;;;27.40;87.80;;;;;;4983327;28;20732;-74
2023/09/17 14:32:09;;;;;;;2.63;2.03;;;27.60;87.90;;;;;;4987752;28;20058;-74
2023/09/17 14:34:55;;;;;;;3.20;2.00;;;27.90;88.60;;;;;;4984906;28;20471;-74
2023/09/17 14:37:41;;;;;;;5.95;2.13;;;27.90;87.20;;;;;;4977572;28;20042;-73
2023/09/17 14:40:27;;;;;;;3.22;2.03;;;27.90;87.60;;;;;;5012808;28;20081;-74
2023/09/17 14:43:13;;;;;;;3.05;2.20;;;28.00;87.60;;;;;;4998382;28;20128;-74
2023/09/17 14:45:59;;;;;;;3.70;2.20;;;28.30;84.70;;;;;;4984866;28;20077;-74